createdAt,value
2018-09-09T00:00:59.518Z,1013.05
2018-09-09T00:01:59.490Z,1013.10
2018-09-09T00:02:59.462Z,1013.08
2018-09-09T00:03:59.434Z,1013.09
2018-09-09T00:04:59.407Z,1013.08
2018-09-09T00:05:59.379Z,1013.12
2018-09-09T00:06:59.354Z,1013.12
2018-09-09T00:07:59.326Z,1013.12
2018-09-09T00:08:59.297Z,1013.09
2018-09-09T00:09:59.268Z,1013.15
2018-09-09T00:10:59.247Z,1013.10
2018-09-09T00:11:59.221Z,1013.14
2018-09-09T00:12:59.188Z,1013.17
2018-09-09T00:13:59.161Z,1013.16
2018-09-09T00:14:59.134Z,1013.16
2018-09-09T00:15:59.105Z,1013.19
2018-09-09T00:16:59.080Z,1013.18
2018-09-09T00:17:59.052Z,1013.16
2018-09-09T00:18:59.024Z,1013.16
2018-09-09T00:19:58.997Z,1013.11
2018-09-09T00:20:58.971Z,1013.18
2018-09-09T00:21:58.943Z,1013.15
2018-09-09T00:22:58.915Z,1013.17
2018-09-09T00:23:58.891Z,1013.20
2018-09-09T00:24:58.861Z,1013.17
2018-09-09T00:25:58.836Z,1013.20
2018-09-09T00:26:58.804Z,1013.24
2018-09-09T00:27:58.779Z,1013.20
2018-09-09T00:28:58.749Z,1013.23
2018-09-09T00:29:58.722Z,1013.22
2018-09-09T00:30:58.701Z,1013.22
2018-09-09T00:31:58.667Z,1013.22
2018-09-09T00:32:58.639Z,1013.22
2018-09-09T00:33:58.613Z,1013.22
2018-09-09T00:34:58.587Z,1013.21
2018-09-09T00:35:58.557Z,1013.17
2018-09-09T00:36:58.530Z,1013.16
2018-09-09T00:37:58.503Z,1013.20
2018-09-09T00:38:58.476Z,1013.16
2018-09-09T00:39:58.449Z,1013.16
2018-09-09T00:40:58.421Z,1013.18
2018-09-09T00:41:58.395Z,1013.19
2018-09-09T00:42:58.367Z,1013.17
2018-09-09T00:43:58.338Z,1013.19
2018-09-09T00:44:58.311Z,1013.16
2018-09-09T00:45:58.285Z,1013.16
2018-09-09T00:46:58.257Z,1013.18
2018-09-09T00:47:58.229Z,1013.15
2018-09-09T00:48:58.201Z,1013.17
2018-09-09T00:49:58.176Z,1013.16
2018-09-09T00:50:58.148Z,1013.12
2018-09-09T00:51:58.120Z,1013.14
2018-09-09T00:52:58.093Z,1013.16
2018-09-09T00:53:58.066Z,1013.18
2018-09-09T00:54:58.038Z,1013.15
2018-09-09T00:55:58.011Z,1013.15
2018-09-09T00:56:57.982Z,1013.14
2018-09-09T00:57:57.954Z,1013.13
2018-09-09T00:58:57.930Z,1013.13
2018-09-09T00:59:58.753Z,1013.12
2018-09-09T01:00:57.877Z,1013.08
2018-09-09T01:01:57.844Z,1013.09
2018-09-09T01:02:57.816Z,1013.14
2018-09-09T01:03:57.789Z,1013.13
2018-09-09T01:04:57.760Z,1013.12
2018-09-09T01:05:57.733Z,1013.13
2018-09-09T01:06:57.707Z,1013.13
2018-09-09T01:07:57.679Z,1013.08
2018-09-09T01:08:57.652Z,1013.13
2018-09-09T01:09:57.626Z,1013.11
2018-09-09T01:10:57.596Z,1013.11
2018-09-09T01:11:57.567Z,1013.09
2018-09-09T01:12:57.541Z,1013.10
2018-09-09T01:13:57.513Z,1013.11
2018-09-09T01:14:57.486Z,1013.08
2018-09-09T01:15:57.459Z,1013.09
2018-09-09T01:16:57.430Z,1013.09
2018-09-09T01:17:57.401Z,1013.06
2018-09-09T01:18:57.375Z,1013.02
2018-09-09T01:19:57.346Z,1013.04
2018-09-09T01:20:57.319Z,1013.00
2018-09-09T01:21:57.289Z,1012.97
2018-09-09T01:22:57.265Z,1013.00
2018-09-09T01:23:57.237Z,1012.99
2018-09-09T01:24:57.206Z,1012.97
2018-09-09T01:25:57.181Z,1012.96
2018-09-09T01:26:58.752Z,1012.98
2018-09-09T01:27:57.126Z,1012.95
2018-09-09T01:28:57.098Z,1012.98
2018-09-09T01:29:57.067Z,1012.98
2018-09-09T01:30:57.046Z,1012.98
2018-09-09T01:31:57.014Z,1012.99
2018-09-09T01:32:56.986Z,1012.99
2018-09-09T01:33:56.960Z,1012.96
2018-09-09T01:34:57.761Z,1012.93
2018-09-09T01:35:56.903Z,1012.93
2018-09-09T01:36:56.880Z,1012.94
2018-09-09T01:37:56.849Z,1012.92
2018-09-09T01:38:56.823Z,1012.95
2018-09-09T01:39:56.793Z,1012.91
2018-09-09T01:40:56.765Z,1012.92
2018-09-09T01:41:56.740Z,1012.94
2018-09-09T01:42:56.712Z,1012.91
2018-09-09T01:43:56.684Z,1012.91
2018-09-09T01:44:56.656Z,1012.90
2018-09-09T01:45:56.629Z,1012.91
2018-09-09T01:46:56.601Z,1012.90
2018-09-09T01:47:56.574Z,1012.91
2018-09-09T01:48:56.546Z,1012.93
2018-09-09T01:49:56.519Z,1012.92
2018-09-09T01:50:56.491Z,1012.91
2018-09-09T01:51:56.463Z,1012.88
2018-09-09T01:52:56.434Z,1012.89
2018-09-09T01:53:56.409Z,1012.89
2018-09-09T01:54:56.383Z,1012.88
2018-09-09T01:55:56.353Z,1012.85
2018-09-09T01:56:56.327Z,1012.89
2018-09-09T01:57:56.301Z,1012.88
2018-09-09T01:58:56.276Z,1012.87
2018-09-09T01:59:56.243Z,1012.86
2018-09-09T02:00:56.219Z,1012.86
2018-09-09T02:01:56.189Z,1012.84
2018-09-09T02:02:56.165Z,1012.88
2018-09-09T02:03:56.133Z,1012.85
2018-09-09T02:04:56.106Z,1012.89
2018-09-09T02:05:56.079Z,1012.88
2018-09-09T02:06:56.051Z,1012.91
2018-09-09T02:07:56.025Z,1012.88
2018-09-09T02:08:55.997Z,1012.88
2018-09-09T02:09:55.973Z,1012.89
2018-09-09T02:10:55.939Z,1012.90
2018-09-09T02:11:55.914Z,1012.87
2018-09-09T02:12:55.891Z,1012.88
2018-09-09T02:13:55.862Z,1012.89
2018-09-09T02:14:55.833Z,1012.87
2018-09-09T02:15:55.806Z,1012.89
2018-09-09T02:16:55.776Z,1012.86
2018-09-09T02:17:55.760Z,1012.84
2018-09-09T02:18:55.723Z,1012.86
2018-09-09T02:19:55.698Z,1012.87
2018-09-09T02:20:55.668Z,1012.87
2018-09-09T02:21:55.640Z,1012.86
2018-09-09T02:22:55.614Z,1012.86
2018-09-09T02:23:55.589Z,1012.84
2018-09-09T02:24:55.558Z,1012.85
2018-09-09T02:25:55.645Z,1012.86
2018-09-09T02:26:55.503Z,1012.80
2018-09-09T02:27:55.475Z,1012.82
2018-09-09T02:28:55.447Z,1012.78
2018-09-09T02:29:55.421Z,1012.79
2018-09-09T02:30:55.397Z,1012.78
2018-09-09T02:31:55.366Z,1012.75
2018-09-09T02:32:55.338Z,1012.74
2018-09-09T02:33:55.311Z,1012.77
2018-09-09T02:34:55.285Z,1012.72
2018-09-09T02:35:55.258Z,1012.77
2018-09-09T02:36:55.231Z,1012.76
2018-09-09T02:37:55.203Z,1012.79
2018-09-09T02:38:55.174Z,1012.84
2018-09-09T02:39:55.144Z,1012.81
2018-09-09T02:40:55.120Z,1012.83
2018-09-09T02:41:55.093Z,1012.85
2018-09-09T02:42:55.065Z,1012.84
2018-09-09T02:43:55.061Z,1012.85
2018-09-09T02:44:55.014Z,1012.83
2018-09-09T02:45:54.983Z,1012.84
2018-09-09T02:46:54.958Z,1012.85
2018-09-09T02:47:54.929Z,1012.84
2018-09-09T02:48:54.903Z,1012.84
2018-09-09T02:49:54.878Z,1012.82
2018-09-09T02:50:54.849Z,1012.79
2018-09-09T02:51:54.821Z,1012.85
2018-09-09T02:52:54.792Z,1012.86
2018-09-09T02:53:54.779Z,1012.89
2018-09-09T02:54:54.740Z,1012.84
2018-09-09T02:55:54.711Z,1012.89
2018-09-09T02:56:55.275Z,1012.89
2018-09-09T02:57:54.656Z,1012.87
2018-09-09T02:58:54.627Z,1012.80
2018-09-09T02:59:54.605Z,1012.79
2018-09-09T03:00:54.576Z,1012.75
2018-09-09T03:01:54.546Z,1012.72
2018-09-09T03:02:54.520Z,1012.73
2018-09-09T03:03:54.498Z,1012.75
2018-09-09T03:04:54.466Z,1012.74
2018-09-09T03:05:54.437Z,1012.71
2018-09-09T03:06:54.411Z,1012.71
2018-09-09T03:07:54.389Z,1012.71
2018-09-09T03:08:54.358Z,1012.73
2018-09-09T03:09:54.328Z,1012.69
2018-09-09T03:10:54.303Z,1012.70
2018-09-09T03:11:54.273Z,1012.67
2018-09-09T03:12:54.248Z,1012.69
2018-09-09T03:13:54.223Z,1012.70
2018-09-09T03:14:54.195Z,1012.72
2018-09-09T03:15:54.165Z,1012.69
2018-09-09T03:16:54.137Z,1012.73
2018-09-09T03:17:54.112Z,1012.71
2018-09-09T03:18:54.084Z,1012.67
2018-09-09T03:19:54.058Z,1012.68
2018-09-09T03:20:54.030Z,1012.66
2018-09-09T03:21:54.002Z,1012.67
2018-09-09T03:22:53.981Z,1012.66
2018-09-09T03:23:53.949Z,1012.64
2018-09-09T03:24:53.921Z,1012.66
2018-09-09T03:25:53.893Z,1012.62
2018-09-09T03:26:53.867Z,1012.59
2018-09-09T03:27:53.835Z,1012.59
2018-09-09T03:28:53.840Z,1012.64
2018-09-09T03:29:53.785Z,1012.65
2018-09-09T03:30:53.758Z,1012.65
2018-09-09T03:31:53.728Z,1012.69
2018-09-09T03:32:53.703Z,1012.73
2018-09-09T03:33:53.674Z,1012.70
2018-09-09T03:34:53.648Z,1012.67
2018-09-09T03:35:53.619Z,1012.68
2018-09-09T03:36:53.592Z,1012.65
2018-09-09T03:37:53.565Z,1012.64
2018-09-09T03:38:53.538Z,1012.63
2018-09-09T03:39:53.510Z,1012.64
2018-09-09T03:40:54.283Z,1012.63
2018-09-09T03:41:53.459Z,1012.66
2018-09-09T03:42:53.429Z,1012.67
2018-09-09T03:43:53.401Z,1012.71
2018-09-09T03:44:53.374Z,1012.67
2018-09-09T03:45:53.349Z,1012.67
2018-09-09T03:46:53.320Z,1012.67
2018-09-09T03:47:53.290Z,1012.63
2018-09-09T03:48:53.264Z,1012.64
2018-09-09T03:49:53.236Z,1012.66
2018-09-09T03:50:53.213Z,1012.65
2018-09-09T03:51:53.180Z,1012.68
2018-09-09T03:52:53.154Z,1012.70
2018-09-09T03:53:53.130Z,1012.72
2018-09-09T03:54:53.098Z,1012.74
2018-09-09T03:55:53.074Z,1012.79
2018-09-09T03:56:53.044Z,1012.73
2018-09-09T03:57:53.016Z,1012.77
2018-09-09T03:58:52.991Z,1012.73
2018-09-09T03:59:52.962Z,1012.72
2018-09-09T04:00:52.936Z,1012.75
2018-09-09T04:01:52.907Z,1012.75
2018-09-09T04:02:52.881Z,1012.77
2018-09-09T04:03:54.783Z,1012.72
2018-09-09T04:04:52.824Z,1012.71
2018-09-09T04:05:52.796Z,1012.68
2018-09-09T04:06:53.287Z,1012.69
2018-09-09T04:07:52.741Z,1012.70
2018-09-09T04:08:52.719Z,1012.69
2018-09-09T04:09:52.729Z,1012.66
2018-09-09T04:10:52.660Z,1012.69
2018-09-09T04:11:52.629Z,1012.66
2018-09-09T04:12:52.603Z,1012.68
2018-09-09T04:13:52.576Z,1012.70
2018-09-09T04:14:52.548Z,1012.69
2018-09-09T04:15:52.521Z,1012.74
2018-09-09T04:16:52.493Z,1012.75
2018-09-09T04:17:52.466Z,1012.73
2018-09-09T04:18:52.437Z,1012.79
2018-09-09T04:19:52.409Z,1012.78
2018-09-09T04:20:52.382Z,1012.81
2018-09-09T04:21:52.365Z,1012.86
2018-09-09T04:22:52.327Z,1012.83
2018-09-09T04:23:52.299Z,1012.82
2018-09-09T04:24:52.272Z,1012.83
2018-09-09T04:25:52.249Z,1012.83
2018-09-09T04:26:52.220Z,1012.86
2018-09-09T04:27:52.188Z,1012.83
2018-09-09T04:28:52.159Z,1012.91
2018-09-09T04:29:52.131Z,1012.91
2018-09-09T04:30:52.165Z,1012.94
2018-09-09T04:31:52.076Z,1012.93
2018-09-09T04:32:52.793Z,1012.96
2018-09-09T04:33:52.020Z,1012.98
2018-09-09T04:34:51.993Z,1012.96
2018-09-09T04:35:51.963Z,1013.01
2018-09-09T04:36:51.937Z,1013.06
2018-09-09T04:37:51.910Z,1013.03
2018-09-09T04:38:51.882Z,1013.08
2018-09-09T04:39:51.853Z,1013.07
2018-09-09T04:40:51.823Z,1013.07
2018-09-09T04:41:51.797Z,1013.10
2018-09-09T04:42:51.773Z,1013.13
2018-09-09T04:43:51.742Z,1013.14
2018-09-09T04:44:51.712Z,1013.16
2018-09-09T04:45:51.683Z,1013.15
2018-09-09T04:46:51.656Z,1013.16
2018-09-09T04:47:51.627Z,1013.16
2018-09-09T04:48:51.600Z,1013.12
2018-09-09T04:49:51.572Z,1013.13
2018-09-09T04:50:51.544Z,1013.10
2018-09-09T04:51:51.514Z,1013.08
2018-09-09T04:52:51.488Z,1013.07
2018-09-09T04:53:51.467Z,1013.07
2018-09-09T04:54:51.430Z,1013.06
2018-09-09T04:55:51.401Z,1013.04
2018-09-09T04:56:52.297Z,1013.04
2018-09-09T04:57:51.347Z,1013.07
2018-09-09T04:58:51.318Z,1013.06
2018-09-09T04:59:51.292Z,1013.09
2018-09-09T05:00:58.880Z,1013.11
2018-09-09T05:02:44.096Z,1013.08
2018-09-09T05:03:44.041Z,1013.06
2018-09-09T05:05:37.662Z,1013.00
2018-09-09T05:06:37.607Z,1012.99
2018-09-09T05:08:30.438Z,1013.01
2018-09-09T05:09:30.384Z,1013.05
2018-09-09T05:11:23.194Z,1013.14
2018-09-09T05:12:23.159Z,1013.15
2018-09-09T05:13:23.131Z,1013.16
2018-09-09T05:14:23.106Z,1013.21
2018-09-09T05:15:23.079Z,1013.16
2018-09-09T05:16:23.047Z,1013.18
2018-09-09T05:17:23.017Z,1013.17
2018-09-09T05:18:22.990Z,1013.17
2018-09-09T05:19:22.962Z,1013.23
2018-09-09T05:20:22.932Z,1013.25
2018-09-09T05:21:22.903Z,1013.22
2018-09-09T05:22:22.877Z,1013.26
2018-09-09T05:23:22.849Z,1013.22
2018-09-09T05:24:22.821Z,1013.20
2018-09-09T05:25:22.792Z,1013.21
2018-09-09T05:26:22.763Z,1013.20
2018-09-09T05:27:22.742Z,1013.23
2018-09-09T05:28:22.706Z,1013.24
2018-09-09T05:29:22.679Z,1013.24
2018-09-09T05:30:22.653Z,1013.24
2018-09-09T05:31:22.627Z,1013.26
2018-09-09T05:32:22.597Z,1013.17
2018-09-09T05:33:22.571Z,1013.17
2018-09-09T05:34:22.540Z,1013.20
2018-09-09T05:35:22.511Z,1013.19
2018-09-09T05:36:22.485Z,1013.20
2018-09-09T05:37:22.454Z,1013.16
2018-09-09T05:38:22.431Z,1013.21
2018-09-09T05:39:22.401Z,1013.24
2018-09-09T05:40:22.371Z,1013.25
2018-09-09T05:41:22.347Z,1013.26
2018-09-09T05:42:22.328Z,1013.30
2018-09-09T05:43:22.286Z,1013.25
2018-09-09T05:44:22.262Z,1013.27
2018-09-09T05:45:22.232Z,1013.26
2018-09-09T05:46:22.202Z,1013.25
2018-09-09T05:47:22.175Z,1013.16
2018-09-09T05:48:22.149Z,1013.18
2018-09-09T05:49:22.120Z,1013.22
2018-09-09T05:50:22.095Z,1013.20
2018-09-09T05:51:22.066Z,1013.21
2018-09-09T05:52:22.036Z,1013.17
2018-09-09T05:53:22.012Z,1013.23
2018-09-09T05:54:21.981Z,1013.22
2018-09-09T05:55:21.954Z,1013.24
2018-09-09T05:56:21.926Z,1013.24
2018-09-09T05:57:21.898Z,1013.24
2018-09-09T05:58:21.871Z,1013.25
2018-09-09T05:59:21.844Z,1013.27
2018-09-09T06:00:22.798Z,1013.30
2018-09-09T06:01:21.792Z,1013.27
2018-09-09T06:02:21.760Z,1013.26
2018-09-09T06:03:22.299Z,1013.28
2018-09-09T06:04:21.703Z,1013.31
2018-09-09T06:05:21.680Z,1013.31
2018-09-09T06:06:23.292Z,1013.34
2018-09-09T06:07:21.626Z,1013.30
2018-09-09T06:08:21.599Z,1013.33
2018-09-09T06:09:21.568Z,1013.32
2018-09-09T06:10:21.541Z,1013.34
2018-09-09T06:11:21.515Z,1013.33
2018-09-09T06:12:21.486Z,1013.33
2018-09-09T06:13:21.460Z,1013.35
2018-09-09T06:14:21.432Z,1013.33
2018-09-09T06:15:21.406Z,1013.36
2018-09-09T06:16:21.378Z,1013.37
2018-09-09T06:17:21.360Z,1013.38
2018-09-09T06:18:21.324Z,1013.41
2018-09-09T06:19:21.296Z,1013.40
2018-09-09T06:20:21.269Z,1013.43
2018-09-09T06:21:21.242Z,1013.44
2018-09-09T06:22:21.213Z,1013.44
2018-09-09T06:23:21.192Z,1013.43
2018-09-09T06:24:21.160Z,1013.46
2018-09-09T06:25:21.134Z,1013.42
2018-09-09T06:26:21.107Z,1013.41
2018-09-09T06:27:21.081Z,1013.45
2018-09-09T06:28:21.138Z,1013.46
2018-09-09T06:29:21.028Z,1013.42
2018-09-09T06:30:21.802Z,1013.44
2018-09-09T06:31:20.975Z,1013.48
2018-09-09T06:32:20.947Z,1013.49
2018-09-09T06:33:20.921Z,1013.48
2018-09-09T06:34:20.895Z,1013.48
2018-09-09T06:35:20.907Z,1013.49
2018-09-09T06:36:20.841Z,1013.51
2018-09-09T06:37:20.816Z,1013.54
2018-09-09T06:38:20.790Z,1013.51
2018-09-09T06:39:20.767Z,1013.51
2018-09-09T06:40:20.738Z,1013.52
2018-09-09T06:41:20.712Z,1013.55
2018-09-09T06:42:20.686Z,1013.56
2018-09-09T06:43:20.660Z,1013.55
2018-09-09T06:44:20.633Z,1013.54
2018-09-09T06:45:20.609Z,1013.59
2018-09-09T06:46:20.600Z,1013.58
2018-09-09T06:47:20.553Z,1013.60
2018-09-09T06:48:20.529Z,1013.61
2018-09-09T06:49:20.504Z,1013.63
2018-09-09T06:50:20.480Z,1013.67
2018-09-09T06:51:20.475Z,1013.66
2018-09-09T06:52:20.429Z,1013.69
2018-09-09T06:53:20.400Z,1013.67
2018-09-09T06:54:20.374Z,1013.73
2018-09-09T06:55:20.355Z,1013.70
2018-09-09T06:56:20.324Z,1013.72
2018-09-09T06:57:20.307Z,1013.74
2018-09-09T06:58:20.276Z,1013.73
2018-09-09T06:59:20.248Z,1013.73
2018-09-09T07:00:20.227Z,1013.71
2018-09-09T07:01:20.200Z,1013.74
2018-09-09T07:02:20.178Z,1013.75
2018-09-09T07:03:20.149Z,1013.73
2018-09-09T07:04:20.123Z,1013.71
2018-09-09T07:05:20.098Z,1013.72
2018-09-09T07:06:20.073Z,1013.72
2018-09-09T07:07:20.049Z,1013.72
2018-09-09T07:08:20.025Z,1013.74
2018-09-09T07:09:19.999Z,1013.74
2018-09-09T07:10:19.974Z,1013.70
2018-09-09T07:11:19.961Z,1013.71
2018-09-09T07:12:19.936Z,1013.73
2018-09-09T07:13:19.923Z,1013.73
2018-09-09T07:14:19.876Z,1013.72
2018-09-09T07:15:19.854Z,1013.70
2018-09-09T07:16:19.827Z,1013.70
2018-09-09T07:17:19.804Z,1013.71
2018-09-09T07:18:19.781Z,1013.67
2018-09-09T07:19:19.757Z,1013.66
2018-09-09T07:20:19.733Z,1013.64
2018-09-09T07:21:19.707Z,1013.64
2018-09-09T07:22:19.682Z,1013.61
2018-09-09T07:23:19.662Z,1013.63
2018-09-09T07:24:19.634Z,1013.62
2018-09-09T07:25:19.615Z,1013.62
2018-09-09T07:26:19.588Z,1013.63
2018-09-09T07:27:19.564Z,1013.68
2018-09-09T07:28:19.542Z,1013.68
2018-09-09T07:29:19.517Z,1013.68
2018-09-09T07:30:19.495Z,1013.67
2018-09-09T07:31:19.471Z,1013.66
2018-09-09T07:32:19.448Z,1013.64
2018-09-09T07:33:19.423Z,1013.69
2018-09-09T07:34:19.487Z,1013.72
2018-09-09T07:35:19.379Z,1013.70
2018-09-09T07:36:19.352Z,1013.72
2018-09-09T07:37:19.358Z,1013.75
2018-09-09T07:38:19.308Z,1013.76
2018-09-09T07:39:19.286Z,1013.77
2018-09-09T07:40:19.260Z,1013.74
2018-09-09T07:41:19.240Z,1013.70
2018-09-09T07:42:19.219Z,1013.71
2018-09-09T07:43:19.195Z,1013.73
2018-09-09T07:44:19.176Z,1013.77
2018-09-09T07:45:19.149Z,1013.74
2018-09-09T07:46:19.184Z,1013.74
2018-09-09T07:47:19.107Z,1013.76
2018-09-09T07:48:19.084Z,1013.81
2018-09-09T07:49:19.079Z,1013.75
2018-09-09T07:50:19.040Z,1013.76
2018-09-09T07:51:19.018Z,1013.79
2018-09-09T07:52:18.995Z,1013.79
2018-09-09T07:53:18.974Z,1013.79
2018-09-09T07:54:18.965Z,1013.81
2018-09-09T07:55:18.931Z,1013.80
2018-09-09T07:56:18.908Z,1013.83
2018-09-09T07:57:18.889Z,1013.81
2018-09-09T07:58:18.865Z,1013.80
2018-09-09T07:59:18.843Z,1013.78
2018-09-09T08:00:18.850Z,1013.79
2018-09-09T08:01:18.806Z,1013.81
2018-09-09T08:02:18.777Z,1013.76
2018-09-09T08:03:18.756Z,1013.79
2018-09-09T08:04:18.734Z,1013.74
2018-09-09T08:05:18.712Z,1013.72
2018-09-09T08:06:18.690Z,1013.75
2018-09-09T08:07:18.668Z,1013.73
2018-09-09T08:08:18.645Z,1013.75
2018-09-09T08:09:18.623Z,1013.77
2018-09-09T08:10:18.602Z,1013.73
2018-09-09T08:11:18.582Z,1013.78
2018-09-09T08:12:18.559Z,1013.77
2018-09-09T08:13:18.539Z,1013.79
2018-09-09T08:14:18.516Z,1013.81
2018-09-09T08:15:18.496Z,1013.80
2018-09-09T08:16:18.472Z,1013.77
2018-09-09T08:17:18.451Z,1013.81
2018-09-09T08:18:18.437Z,1013.82
2018-09-09T08:19:18.409Z,1013.82
2018-09-09T08:20:18.386Z,1013.81
2018-09-09T08:21:18.366Z,1013.83
2018-09-09T08:22:18.345Z,1013.86
2018-09-09T08:23:18.322Z,1013.83
2018-09-09T08:24:18.300Z,1013.84
2018-09-09T08:25:18.278Z,1013.85
2018-09-09T08:26:18.256Z,1013.86
2018-09-09T08:27:18.830Z,1013.87
2018-09-09T08:28:18.214Z,1013.84
2018-09-09T08:29:18.192Z,1013.87
2018-09-09T08:30:18.170Z,1013.85
2018-09-09T08:31:18.149Z,1013.83
2018-09-09T08:32:18.126Z,1013.81
2018-09-09T08:33:18.103Z,1013.84
2018-09-09T08:34:18.084Z,1013.85
2018-09-09T08:35:18.061Z,1013.81
2018-09-09T08:36:18.040Z,1013.81
2018-09-09T08:37:18.018Z,1013.82
2018-09-09T08:38:17.996Z,1013.84
2018-09-09T08:39:17.975Z,1013.84
2018-09-09T08:40:17.954Z,1013.85
2018-09-09T08:41:17.930Z,1013.82
2018-09-09T08:42:17.909Z,1013.87
2018-09-09T08:43:17.889Z,1013.88
2018-09-09T08:44:17.869Z,1013.87
2018-09-09T08:45:17.858Z,1013.85
2018-09-09T08:46:17.824Z,1013.86
2018-09-09T08:47:17.804Z,1013.88
2018-09-09T08:48:17.782Z,1013.87
2018-09-09T08:49:17.760Z,1013.89
2018-09-09T08:50:17.742Z,1013.88
2018-09-09T08:51:17.717Z,1013.86
2018-09-09T08:52:17.784Z,1013.89
2018-09-09T08:53:17.678Z,1013.91
2018-09-09T08:54:17.658Z,1013.88
2018-09-09T08:55:17.632Z,1013.90
2018-09-09T08:56:18.337Z,1013.88
2018-09-09T08:57:17.588Z,1013.91
2018-09-09T08:58:17.570Z,1013.93
2018-09-09T08:59:17.550Z,1013.93
2018-09-09T09:00:17.527Z,1013.95
2018-09-09T09:01:17.508Z,1013.96
2018-09-09T09:02:17.485Z,1013.99
2018-09-09T09:03:17.472Z,1013.98
2018-09-09T09:04:17.445Z,1013.98
2018-09-09T09:05:17.422Z,1014.01
2018-09-09T09:06:17.403Z,1014.00
2018-09-09T09:07:17.417Z,1013.99
2018-09-09T09:08:17.357Z,1013.99
2018-09-09T09:09:17.339Z,1013.97
2018-09-09T09:10:17.320Z,1014.02
2018-09-09T09:11:17.298Z,1014.00
2018-09-09T09:12:17.278Z,1014.00
2018-09-09T09:13:17.256Z,1013.99
2018-09-09T09:14:17.233Z,1013.99
2018-09-09T09:15:17.215Z,1013.98
2018-09-09T09:16:17.194Z,1013.97
2018-09-09T09:17:17.174Z,1013.98
2018-09-09T09:18:17.154Z,1013.97
2018-09-09T09:19:17.136Z,1013.98
2018-09-09T09:20:17.114Z,1013.99
2018-09-09T09:21:17.092Z,1013.98
2018-09-09T09:22:17.081Z,1013.98
2018-09-09T09:23:17.053Z,1013.98
2018-09-09T09:24:17.031Z,1013.98
2018-09-09T09:25:17.008Z,1013.98
2018-09-09T09:26:16.989Z,1013.98
2018-09-09T09:27:16.969Z,1013.98
2018-09-09T09:28:16.947Z,1013.96
2018-09-09T09:29:16.927Z,1013.94
2018-09-09T09:30:16.907Z,1013.95
2018-09-09T09:31:16.897Z,1013.91
2018-09-09T09:32:16.866Z,1013.92
2018-09-09T09:33:16.846Z,1013.91
2018-09-09T09:34:16.826Z,1013.90
2018-09-09T09:35:16.804Z,1013.90
2018-09-09T09:36:16.783Z,1013.90
2018-09-09T09:37:16.765Z,1013.85
2018-09-09T09:38:16.742Z,1013.86
2018-09-09T09:39:16.731Z,1013.86
2018-09-09T09:40:16.703Z,1013.84
2018-09-09T09:41:16.681Z,1013.82
2018-09-09T09:42:16.663Z,1013.85
2018-09-09T09:43:16.643Z,1013.86
2018-09-09T09:44:16.620Z,1013.82
2018-09-09T09:45:16.600Z,1013.88
2018-09-09T09:46:16.580Z,1013.84
2018-09-09T09:47:16.559Z,1013.85
2018-09-09T09:48:16.539Z,1013.83
2018-09-09T09:49:16.522Z,1013.83
2018-09-09T09:50:16.498Z,1013.81
2018-09-09T09:51:16.480Z,1013.83
2018-09-09T09:52:16.457Z,1013.82
2018-09-09T09:53:16.527Z,1013.83
2018-09-09T09:54:16.417Z,1013.80
2018-09-09T09:55:16.403Z,1013.80
2018-09-09T09:56:16.376Z,1013.77
2018-09-09T09:57:16.358Z,1013.76
2018-09-09T09:58:16.337Z,1013.78
2018-09-09T09:59:16.315Z,1013.80
2018-09-09T10:00:16.296Z,1013.77
2018-09-09T10:01:16.278Z,1013.77
2018-09-09T10:02:16.257Z,1013.76
2018-09-09T10:03:16.236Z,1013.78
2018-09-09T10:04:16.211Z,1013.75
2018-09-09T10:05:16.196Z,1013.76
2018-09-09T10:06:16.176Z,1013.74
2018-09-09T10:07:16.157Z,1013.76
2018-09-09T10:08:16.137Z,1013.75
2018-09-09T10:09:16.117Z,1013.79
2018-09-09T10:10:16.096Z,1013.75
2018-09-09T10:11:16.078Z,1013.75
2018-09-09T10:12:16.057Z,1013.74
2018-09-09T10:13:16.036Z,1013.77
2018-09-09T10:14:16.018Z,1013.73
2018-09-09T10:15:16.015Z,1013.77
2018-09-09T10:16:15.977Z,1013.70
2018-09-09T10:17:15.957Z,1013.69
2018-09-09T10:18:15.937Z,1013.70
2018-09-09T10:19:15.919Z,1013.66
2018-09-09T10:20:15.895Z,1013.70
2018-09-09T10:21:15.877Z,1013.70
2018-09-09T10:22:15.861Z,1013.71
2018-09-09T10:23:15.836Z,1013.68
2018-09-09T10:24:15.817Z,1013.71
2018-09-09T10:25:15.798Z,1013.71
2018-09-09T10:26:15.776Z,1013.70
2018-09-09T10:27:15.759Z,1013.71
2018-09-09T10:28:15.739Z,1013.73
2018-09-09T10:29:15.719Z,1013.74
2018-09-09T10:30:15.699Z,1013.69
2018-09-09T10:31:15.676Z,1013.69
2018-09-09T10:32:15.656Z,1013.68
2018-09-09T10:33:15.638Z,1013.68
2018-09-09T10:34:15.618Z,1013.71
2018-09-09T10:35:15.599Z,1013.71
2018-09-09T10:36:15.577Z,1013.72
2018-09-09T10:37:15.558Z,1013.70
2018-09-09T10:38:15.537Z,1013.69
2018-09-09T10:39:15.518Z,1013.70
2018-09-09T10:40:15.497Z,1013.73
2018-09-09T10:41:15.477Z,1013.70
2018-09-09T10:42:15.457Z,1013.72
2018-09-09T10:43:15.436Z,1013.69
2018-09-09T10:44:15.415Z,1013.68
2018-09-09T10:45:15.398Z,1013.67
2018-09-09T10:46:15.495Z,1013.66
2018-09-09T10:47:15.356Z,1013.68
2018-09-09T10:48:15.336Z,1013.66
2018-09-09T10:49:15.317Z,1013.71
2018-09-09T10:50:15.295Z,1013.68
2018-09-09T10:51:15.279Z,1013.69
2018-09-09T10:52:15.257Z,1013.67
2018-09-09T10:53:15.270Z,1013.67
2018-09-09T10:54:15.216Z,1013.71
2018-09-09T10:55:15.197Z,1013.71
2018-09-09T10:56:15.177Z,1013.70
2018-09-09T10:57:15.162Z,1013.74
2018-09-09T10:58:15.137Z,1013.70
2018-09-09T10:59:15.119Z,1013.72
2018-09-09T11:00:15.097Z,1013.72
2018-09-09T11:01:15.079Z,1013.70
2018-09-09T11:02:15.058Z,1013.72
2018-09-09T11:03:15.037Z,1013.69
2018-09-09T11:04:15.017Z,1013.68
2018-09-09T11:05:14.996Z,1013.70
2018-09-09T11:06:14.976Z,1013.68
2018-09-09T11:07:14.958Z,1013.68
2018-09-09T11:08:14.934Z,1013.71
2018-09-09T11:09:14.914Z,1013.70
2018-09-09T11:10:14.896Z,1013.71
2018-09-09T11:11:14.874Z,1013.70
2018-09-09T11:12:14.854Z,1013.72
2018-09-09T11:13:14.839Z,1013.69
2018-09-09T11:14:14.814Z,1013.73
2018-09-09T11:15:14.793Z,1013.72
2018-09-09T11:16:15.373Z,1013.70
2018-09-09T11:17:14.752Z,1013.72
2018-09-09T11:18:14.732Z,1013.71
2018-09-09T11:19:14.713Z,1013.73
2018-09-09T11:20:14.692Z,1013.72
2018-09-09T11:21:14.672Z,1013.68
2018-09-09T11:22:14.656Z,1013.70
2018-09-09T11:23:14.635Z,1013.69
2018-09-09T11:24:14.678Z,1013.71
2018-09-09T11:25:14.594Z,1013.69
2018-09-09T11:26:14.574Z,1013.64
2018-09-09T11:27:14.558Z,1013.68
2018-09-09T11:28:14.534Z,1013.64
2018-09-09T11:29:14.513Z,1013.66
2018-09-09T11:30:14.493Z,1013.67
2018-09-09T11:31:14.475Z,1013.65
2018-09-09T11:32:14.452Z,1013.66
2018-09-09T11:33:14.433Z,1013.68
2018-09-09T11:34:15.374Z,1013.66
2018-09-09T11:35:14.393Z,1013.68
2018-09-09T11:36:14.431Z,1013.64
2018-09-09T11:37:14.353Z,1013.62
2018-09-09T11:38:14.334Z,1013.61
2018-09-09T11:39:14.312Z,1013.64
2018-09-09T11:40:14.294Z,1013.64
2018-09-09T11:41:14.274Z,1013.66
2018-09-09T11:42:14.254Z,1013.68
2018-09-09T11:43:14.236Z,1013.65
2018-09-09T11:44:14.215Z,1013.65
2018-09-09T11:45:14.197Z,1013.69
2018-09-09T11:46:14.176Z,1013.68
2018-09-09T11:47:14.158Z,1013.70
2018-09-09T11:48:14.143Z,1013.68
2018-09-09T11:49:14.120Z,1013.67
2018-09-09T11:50:14.101Z,1013.68
2018-09-09T11:51:14.088Z,1013.68
2018-09-09T11:52:14.061Z,1013.67
2018-09-09T11:53:14.072Z,1013.69
2018-09-09T11:54:14.025Z,1013.71
2018-09-09T11:55:14.006Z,1013.65
2018-09-09T11:56:13.987Z,1013.66
2018-09-09T11:57:13.970Z,1013.66
2018-09-09T11:58:13.950Z,1013.67
2018-09-09T11:59:13.933Z,1013.65
2018-09-09T12:00:13.912Z,1013.67
2018-09-09T12:01:13.896Z,1013.62
2018-09-09T12:02:13.876Z,1013.63
2018-09-09T12:03:13.857Z,1013.66
2018-09-09T12:04:13.843Z,1013.63
2018-09-09T12:05:13.824Z,1013.66
2018-09-09T12:06:13.801Z,1013.64
2018-09-09T12:07:13.784Z,1013.63
2018-09-09T12:08:13.766Z,1013.61
2018-09-09T12:09:13.748Z,1013.58